Time;durP1;ratioP1;P1;durP2;ratioP2;P2;SDS_P1;SDS_P2;PMS_P1;PMS_P2;Temp;Humidity;BMP_temperature;BMP_pressure;BME280_temperature;BME280_humidity;BME280_pressure;Samples;Min_cycle;Max_cycle;Signal;HPM_P1;HPM_P2
2021/10/05 00:00:22;;;;;;;1.55;0.77;;;;;;;;;;5033831;28;20033;-61
2021/10/05 00:02:48;;;;;;;2.47;0.80;;;;;;;;;;5035856;28;20025;-62
2021/10/05 00:05:14;;;;;;;1.10;0.77;;;;;;;;;;5035071;28;20068;-61
2021/10/05 00:07:39;;;;;;;1.58;0.77;;;;;;;;;;5046947;28;20056;-62
2021/10/05 00:10:07;;;;;;;1.20;0.73;;;;;;;;;;5035884;28;20392;-61
2021/10/05 00:12:33;;;;;;;1.98;0.98;;;;;;;;;;5033258;28;20044;-61
2021/10/05 00:14:58;;;;;;;3.17;1.35;;;;;;;;;;5039292;28;20487;-63
2021/10/05 00:17:25;;;;;;;2.42;1.05;;;;;;;;;;5040504;28;20064;-61
2021/10/05 00:19:51;;;;;;;1.90;1.02;;;;;;;;;;5036561;28;20029;-61
2021/10/05 00:22:16;;;;;;;1.58;1.00;;;;;;;;;;5035701;28;20752;-60
2021/10/05 00:24:42;;;;;;;1.85;1.10;;;;;;;;;;5037433;28;20032;-62
2021/10/05 00:27:08;;;;;;;2.58;0.95;;;;;;;;;;5038212;28;20037;-61
2021/10/05 00:29:34;;;;;;;7.78;1.27;;;;;;;;;;5039759;28;20040;-61
2021/10/05 00:32:00;;;;;;;2.45;1.30;;;;;;;;;;5039680;28;20492;-61
2021/10/05 00:34:25;;;;;;;2.60;1.40;;;;;;;;;;5030437;28;20395;-62
2021/10/05 00:36:52;;;;;;;1.70;1.10;;;;;;;;;;5042272;28;20036;-61
2021/10/05 00:39:17;;;;;;;2.38;1.48;;;;;;;;;;5037246;28;20032;-62
2021/10/05 00:41:43;;;;;;;2.05;1.20;;;;;;;;;;5030901;28;20044;-62
2021/10/05 00:44:08;;;;;;;2.60;1.65;;;;;;;;;;5052145;28;20033;-61
2021/10/05 00:46:35;;;;;;;2.30;1.40;;;;;;;;;;5037577;28;20166;-61
2021/10/05 00:49:01;;;;;;;5.72;1.60;;;;;;;;;;5036084;28;20037;-61
2021/10/05 00:51:27;;;;;;;3.05;1.13;;;;;;;;;;5036877;28;20419;-62
2021/10/05 00:53:53;;;;;;;2.65;1.65;;;;;;;;;;5039155;28;20047;-61
2021/10/05 00:56:20;;;;;;;2.92;1.73;;;;;;;;;;5039902;28;20033;-61
2021/10/05 00:58:45;;;;;;;3.97;1.70;;;;;;;;;;5030449;28;20030;-60
2021/10/05 01:01:12;;;;;;;2.50;1.80;;;;;;;;;;5035631;28;20049;-61
2021/10/05 01:03:39;;;;;;;5.13;1.88;;;;;;;;;;5041223;28;20040;-61
2021/10/05 01:06:04;;;;;;;2.95;1.73;;;;;;;;;;5040680;28;20029;-61
2021/10/05 01:08:31;;;;;;;5.05;1.75;;;;;;;;;;5036622;28;20401;-61
2021/10/05 01:10:57;;;;;;;3.35;2.45;;;;;;;;;;5041900;28;20044;-61
2021/10/05 01:13:23;;;;;;;2.67;1.98;;;;;;;;;;5036593;28;20033;-61
2021/10/05 01:15:48;;;;;;;3.30;2.28;;;;;;;;;;5041958;28;20036;-62
2021/10/05 01:18:14;;;;;;;3.40;2.55;;;;;;;;;;5037634;28;20036;-62
2021/10/05 01:21:00;;;;;;;3.25;2.45;;;;;;;;;;5042218;28;20286;-62
2021/10/05 01:23:27;;;;;;;3.33;2.50;;;;;;;;;;5037122;28;20028;-63
2021/10/05 01:25:53;;;;;;;3.95;2.42;;;;;;;;;;5039572;28;20020;-63
2021/10/05 01:28:20;;;;;;;5.68;2.90;;;;;;;;;;5039884;28;20025;-63
2021/10/05 01:30:47;;;;;;;5.30;2.70;;;;;;;;;;5039079;28;20025;-63
2021/10/05 01:33:13;;;;;;;6.65;2.90;;;;;;;;;;5034364;28;20056;-63
2021/10/05 01:35:38;;;;;;;4.88;2.97;;;;;;;;;;5054343;28;20033;-62
2021/10/05 01:38:04;;;;;;;6.88;3.10;;;;;;;;;;5039147;28;20033;-63
2021/10/05 01:40:30;;;;;;;5.47;2.95;;;;;;;;;;5042727;28;20043;-64
2021/10/05 01:42:55;;;;;;;4.25;3.00;;;;;;;;;;5039604;28;20029;-63
2021/10/05 01:45:21;;;;;;;5.75;2.92;;;;;;;;;;5040611;28;20221;-61
2021/10/05 01:47:46;;;;;;;6.57;3.53;;;;;;;;;;5034544;28;20039;-62
2021/10/05 01:50:12;;;;;;;6.97;3.22;;;;;;;;;;5035035;28;20124;-63
2021/10/05 01:52:37;;;;;;;4.90;3.13;;;;;;;;;;5035682;28;20132;-63
2021/10/05 01:55:07;;;;;;;4.70;3.47;;;;;;;;;;5037504;28;20035;-62
2021/10/05 01:57:33;;;;;;;7.90;3.88;;;;;;;;;;5036027;28;20029;-61
2021/10/05 02:00:00;;;;;;;6.75;3.25;;;;;;;;;;5038943;28;20114;-63
2021/10/05 02:02:25;;;;;;;4.20;3.38;;;;;;;;;;5038773;28;20040;-62
2021/10/05 02:04:51;;;;;;;4.15;3.08;;;;;;;;;;5037233;28;20025;-64
2021/10/05 02:07:17;;;;;;;8.30;3.97;;;;;;;;;;5036238;28;20120;-63
2021/10/05 02:09:48;;;;;;;6.13;3.88;;;;;;;;;;5035847;28;20062;-62
2021/10/05 02:12:18;;;;;;;6.10;4.13;;;;;;;;;;5035819;28;20079;-62
2021/10/05 02:14:45;;;;;;;9.10;3.83;;;;;;;;;;5039832;28;20261;-62
2021/10/05 02:17:11;;;;;;;7.15;3.70;;;;;;;;;;5036476;28;20124;-63
2021/10/05 02:19:37;;;;;;;8.88;3.40;;;;;;;;;;5039898;28;20949;-62
2021/10/05 02:22:04;;;;;;;5.05;3.53;;;;;;;;;;5036904;28;20068;-63
2021/10/05 02:26:59;;;;;;;4.60;3.65;;;;;;;;;;5028833;28;20037;-62
2021/10/05 02:29:25;;;;;;;4.15;3.22;;;;;;;;;;5037786;28;20032;-62
2021/10/05 02:31:50;;;;;;;5.18;2.33;;;;;;;;;;5039224;28;20049;-62
2021/10/05 02:34:17;;;;;;;5.85;2.22;;;;;;;;;;5036527;28;20052;-62
2021/10/05 02:36:43;;;;;;;7.50;3.00;;;;;;;;;;5043697;28;21166;-62
2021/10/05 02:39:09;;;;;;;6.75;3.00;;;;;;;;;;5040955;28;20584;-62
2021/10/05 02:41:35;;;;;;;6.43;2.88;;;;;;;;;;5030608;28;20420;-62
2021/10/05 02:44:01;;;;;;;6.22;2.70;;;;;;;;;;5039904;28;20029;-63
2021/10/05 02:46:27;;;;;;;4.65;2.70;;;;;;;;;;5044130;28;20041;-63
2021/10/05 02:48:53;;;;;;;3.13;2.58;;;;;;;;;;5043103;28;20041;-62
2021/10/05 02:51:19;;;;;;;4.95;3.17;;;;;;;;;;5036901;28;20021;-63
2021/10/05 02:53:45;;;;;;;7.30;2.67;;;;;;;;;;5037205;28;20045;-63
2021/10/05 02:56:10;;;;;;;4.95;2.60;;;;;;;;;;5043243;28;20164;-63
2021/10/05 02:58:36;;;;;;;5.97;2.58;;;;;;;;;;5037004;28;20029;-62
2021/10/05 03:01:01;;;;;;;7.22;2.47;;;;;;;;;;5039882;28;20143;-63
2021/10/05 03:03:27;;;;;;;3.50;2.28;;;;;;;;;;5041475;28;20025;-63
2021/10/05 03:05:52;;;;;;;4.25;2.25;;;;;;;;;;5046061;28;20132;-63
2021/10/05 03:08:18;;;;;;;3.00;2.28;;;;;;;;;;5036336;28;20025;-62
2021/10/05 03:10:43;;;;;;;3.17;2.00;;;;;;;;;;5044906;28;20419;-62
2021/10/05 03:13:09;;;;;;;5.90;2.28;;;;;;;;;;5036468;28;20124;-63
2021/10/05 03:15:34;;;;;;;5.32;2.08;;;;;;;;;;5036248;28;20753;-63
2021/10/05 03:18:00;;;;;;;3.30;2.40;;;;;;;;;;5053150;28;20056;-63
2021/10/05 03:20:26;;;;;;;7.15;2.75;;;;;;;;;;5034398;28;20029;-63
2021/10/05 03:22:51;;;;;;;5.75;2.65;;;;;;;;;;5041801;28;20491;-65
2021/10/05 03:25:16;;;;;;;4.88;2.95;;;;;;;;;;5036104;28;20033;-64
2021/10/05 03:27:42;;;;;;;5.68;3.33;;;;;;;;;;5039666;28;20118;-64
2021/10/05 03:30:09;;;;;;;3.58;2.63;;;;;;;;;;5041913;28;20040;-63
2021/10/05 03:32:35;;;;;;;8.68;2.95;;;;;;;;;;5040174;28;20032;-64
2021/10/05 03:35:00;;;;;;;5.95;3.90;;;;;;;;;;5039761;28;20029;-64
2021/10/05 03:37:26;;;;;;;6.53;3.22;;;;;;;;;;5041175;28;20029;-63
2021/10/05 03:39:52;;;;;;;8.30;3.35;;;;;;;;;;5036082;28;20456;-63
2021/10/05 03:42:17;;;;;;;4.90;2.70;;;;;;;;;;5038403;28;20381;-63
2021/10/05 03:44:43;;;;;;;6.03;2.58;;;;;;;;;;5039223;28;20053;-64
2021/10/05 03:47:08;;;;;;;7.63;2.88;;;;;;;;;;5043276;28;20384;-63
2021/10/05 03:49:34;;;;;;;7.05;2.65;;;;;;;;;;5040058;28;20140;-63
2021/10/05 03:51:59;;;;;;;5.75;2.50;;;;;;;;;;5032412;28;20064;-63
2021/10/05 03:54:25;;;;;;;6.88;2.53;;;;;;;;;;5042419;28;20040;-63
2021/10/05 03:56:50;;;;;;;5.55;2.92;;;;;;;;;;5044069;28;20029;-63
2021/10/05 03:59:16;;;;;;;7.43;2.67;;;;;;;;;;5042371;28;20102;-63
2021/10/05 04:01:45;;;;;;;6.43;2.50;;;;;;;;;;5036573;28;20124;-63
2021/10/05 04:04:11;;;;;;;6.90;2.50;;;;;;;;;;5040000;28;20428;-62
2021/10/05 04:06:37;;;;;;;9.95;2.97;;;;;;;;;;5043210;28;20068;-63
2021/10/05 04:09:05;;;;;;;9.15;2.42;;;;;;;;;;5035465;28;20407;-63
2021/10/05 04:11:34;;;;;;;6.38;2.50;;;;;;;;;;5045031;28;20167;-62
2021/10/05 04:14:00;;;;;;;4.82;2.45;;;;;;;;;;5035460;28;20043;-62
2021/10/05 04:16:25;;;;;;;4.22;2.83;;;;;;;;;;5038865;28;20024;-62
2021/10/05 04:18:51;;;;;;;6.85;2.55;;;;;;;;;;5036511;28;20112;-62
2021/10/05 04:21:16;;;;;;;7.47;2.95;;;;;;;;;;5033969;28;20135;-63
2021/10/05 04:23:42;;;;;;;7.07;2.65;;;;;;;;;;5038174;28;20044;-63
2021/10/05 04:26:07;;;;;;;10.05;2.40;;;;;;;;;;5039907;28;20036;-63
2021/10/05 04:28:33;;;;;;;9.73;2.55;;;;;;;;;;5042029;28;20596;-62
2021/10/05 04:30:59;;;;;;;6.82;2.85;;;;;;;;;;5038740;28;20037;-62
2021/10/05 04:33:24;;;;;;;7.93;2.95;;;;;;;;;;5039202;28;20403;-63
2021/10/05 04:35:50;;;;;;;5.78;2.50;;;;;;;;;;5031204;28;20156;-62
2021/10/05 04:38:15;;;;;;;8.55;2.50;;;;;;;;;;5038503;28;20082;-62
2021/10/05 04:40:41;;;;;;;5.53;2.92;;;;;;;;;;5040648;28;20034;-61
2021/10/05 04:43:06;;;;;;;8.98;2.88;;;;;;;;;;5038948;28;20517;-62
2021/10/05 04:45:32;;;;;;;7.55;2.50;;;;;;;;;;5030674;28;20056;-62
2021/10/05 04:47:57;;;;;;;6.80;2.50;;;;;;;;;;5043251;28;20079;-62
2021/10/05 04:50:22;;;;;;;4.80;2.42;;;;;;;;;;5038034;28;20561;-62
2021/10/05 04:52:48;;;;;;;3.60;2.33;;;;;;;;;;5039459;28;20041;-62
2021/10/05 04:55:14;;;;;;;7.03;2.78;;;;;;;;;;5040765;28;20033;-61
2021/10/05 04:57:39;;;;;;;10.57;2.72;;;;;;;;;;5038465;28;20036;-62
2021/10/05 05:00:06;;;;;;;8.85;2.70;;;;;;;;;;5035452;28;20403;-62
2021/10/05 05:02:32;;;;;;;10.02;2.83;;;;;;;;;;5032857;28;20052;-62
2021/10/05 05:04:58;;;;;;;7.43;2.60;;;;;;;;;;5037727;28;20029;-62
2021/10/05 05:07:23;;;;;;;11.88;3.53;;;;;;;;;;5034491;28;20033;-62
2021/10/05 05:09:49;;;;;;;6.30;2.60;;;;;;;;;;5045129;28;20082;-62
2021/10/05 05:12:14;;;;;;;8.07;3.78;;;;;;;;;;5034621;28;20041;-62
2021/10/05 05:14:41;;;;;;;15.88;6.13;;;;;;;;;;5040149;28;20128;-62
2021/10/05 05:17:06;;;;;;;19.45;10.63;;;;;;;;;;5030305;28;20453;-62
2021/10/05 05:19:32;;;;;;;21.40;11.45;;;;;;;;;;5040873;28;20128;-62
2021/10/05 05:21:59;;;;;;;12.20;6.80;;;;;;;;;;5034546;28;20036;-62
2021/10/05 05:24:26;;;;;;;11.23;5.10;;;;;;;;;;5038585;28;20506;-62
2021/10/05 05:26:51;;;;;;;8.35;3.90;;;;;;;;;;5039838;28;20040;-62
2021/10/05 05:29:17;;;;;;;11.70;4.15;;;;;;;;;;5040264;28;20037;-62
2021/10/05 05:31:42;;;;;;;12.85;3.47;;;;;;;;;;5030941;28;20136;-62
2021/10/05 05:34:08;;;;;;;10.52;4.00;;;;;;;;;;5039051;28;20021;-62
2021/10/05 05:36:33;;;;;;;7.20;3.28;;;;;;;;;;5032227;28;20095;-62
2021/10/05 05:38:59;;;;;;;10.30;3.42;;;;;;;;;;5034026;28;20120;-62
2021/10/05 05:41:24;;;;;;;13.55;3.78;;;;;;;;;;5037454;28;20029;-62
2021/10/05 05:43:50;;;;;;;7.97;2.80;;;;;;;;;;5038534;28;20031;-62
2021/10/05 05:46:15;;;;;;;10.27;3.80;;;;;;;;;;5038333;28;20487;-62
2021/10/05 05:48:41;;;;;;;7.85;3.00;;;;;;;;;;5037629;28;20025;-61
2021/10/05 05:51:06;;;;;;;6.90;2.53;;;;;;;;;;5056164;28;20040;-61
2021/10/05 05:53:32;;;;;;;7.57;4.00;;;;;;;;;;5038487;28;20072;-60
2021/10/05 05:55:57;;;;;;;9.23;3.05;;;;;;;;;;5037250;28;20274;-63
2021/10/05 05:58:23;;;;;;;9.85;2.50;;;;;;;;;;5042503;28;20026;-62
2021/10/05 06:00:49;;;;;;;13.20;2.75;;;;;;;;;;5038234;28;20150;-61
2021/10/05 06:03:14;;;;;;;16.10;3.25;;;;;;;;;;5032849;28;20043;-61
2021/10/05 06:05:40;;;;;;;7.20;2.40;;;;;;;;;;5034054;28;20034;-61
2021/10/05 06:08:06;;;;;;;6.40;1.90;;;;;;;;;;5042017;28;20111;-62
2021/10/05 06:10:32;;;;;;;9.18;1.63;;;;;;;;;;5042202;28;20665;-61
2021/10/05 06:12:57;;;;;;;8.38;2.38;;;;;;;;;;5033256;28;20044;-62
2021/10/05 06:15:24;;;;;;;11.55;1.48;;;;;;;;;;5036426;28;20032;-62
2021/10/05 06:17:50;;;;;;;5.47;1.35;;;;;;;;;;5034166;28;20040;-62
2021/10/05 06:20:22;;;;;;;12.10;1.73;;;;;;;;;;5035462;28;20033;-61
2021/10/05 06:22:48;;;;;;;9.52;1.60;;;;;;;;;;5040756;28;20404;-62
2021/10/05 06:25:17;;;;;;;6.72;1.13;;;;;;;;;;5036560;28;20044;-62
2021/10/05 06:27:42;;;;;;;4.93;1.05;;;;;;;;;;5038209;28;20021;-61
2021/10/05 06:30:11;;;;;;;6.68;1.17;;;;;;;;;;5040902;28;20506;-63
2021/10/05 06:32:36;;;;;;;7.93;1.50;;;;;;;;;;5038049;28;20040;-62
2021/10/05 06:35:03;;;;;;;5.10;0.85;;;;;;;;;;5038622;28;20038;-62
2021/10/05 06:37:28;;;;;;;5.50;0.90;;;;;;;;;;5035995;28;20583;-62
2021/10/05 06:39:54;;;;;;;7.55;0.90;;;;;;;;;;5039846;28;20163;-61
2021/10/05 06:42:20;;;;;;;7.40;1.13;;;;;;;;;;5028633;28;20071;-62
2021/10/05 06:44:45;;;;;;;7.40;0.77;;;;;;;;;;5039135;28;20037;-62
2021/10/05 06:47:11;;;;;;;7.80;1.38;;;;;;;;;;5038641;28;20040;-62
2021/10/05 06:49:36;;;;;;;5.10;0.90;;;;;;;;;;5040054;28;20392;-62
2021/10/05 06:52:03;;;;;;;2.30;0.85;;;;;;;;;;5041579;28;20126;-61
2021/10/05 06:54:29;;;;;;;11.30;1.27;;;;;;;;;;5039465;28;20534;-62
2021/10/05 06:56:56;;;;;;;9.30;1.75;;;;;;;;;;5038110;28;20033;-62
2021/10/05 06:59:22;;;;;;;6.07;1.10;;;;;;;;;;5037946;28;20563;-63
2021/10/05 07:01:48;;;;;;;11.38;1.40;;;;;;;;;;5034326;28;20155;-62
2021/10/05 07:04:14;;;;;;;8.95;1.65;;;;;;;;;;5041837;28;20108;-62
2021/10/05 07:06:39;;;;;;;4.63;1.08;;;;;;;;;;5038965;28;20029;-62
2021/10/05 07:09:05;;;;;;;11.80;1.58;;;;;;;;;;5043893;28;20036;-62
2021/10/05 07:11:35;;;;;;;7.10;1.60;;;;;;;;;;5036890;28;20333;-62
2021/10/05 07:14:01;;;;;;;4.60;1.40;;;;;;;;;;5041642;28;20037;-62
2021/10/05 07:16:27;;;;;;;6.05;1.30;;;;;;;;;;5040591;28;20032;-62
2021/10/05 07:18:52;;;;;;;4.97;1.75;;;;;;;;;;5039286;28;20032;-62
2021/10/05 07:21:18;;;;;;;5.53;1.10;;;;;;;;;;5041118;28;20530;-62
2021/10/05 07:23:44;;;;;;;15.35;2.40;;;;;;;;;;5038003;28;20036;-62
2021/10/05 07:26:09;;;;;;;4.57;1.30;;;;;;;;;;5034220;28;20107;-62
2021/10/05 07:28:35;;;;;;;4.47;1.45;;;;;;;;;;5029926;28;20042;-62
2021/10/05 07:31:00;;;;;;;7.45;1.38;;;;;;;;;;5042776;28;20028;-62
2021/10/05 07:33:27;;;;;;;7.00;1.65;;;;;;;;;;5040066;28;20127;-62
2021/10/05 07:35:53;;;;;;;7.63;1.63;;;;;;;;;;5038378;28;20033;-62
2021/10/05 07:38:19;;;;;;;10.95;1.17;;;;;;;;;;5035174;28;20041;-62
2021/10/05 07:40:44;;;;;;;6.68;0.98;;;;;;;;;;5043917;28;20098;-62
2021/10/05 07:43:10;;;;;;;9.43;1.50;;;;;;;;;;5042283;28;20035;-62
2021/10/05 07:45:37;;;;;;;10.18;1.55;;;;;;;;;;5032255;28;20573;-62
2021/10/05 07:48:04;;;;;;;4.63;1.17;;;;;;;;;;5038908;28;20044;-62
2021/10/05 07:50:31;;;;;;;3.33;1.00;;;;;;;;;;5043602;28;20035;-62
2021/10/05 07:52:57;;;;;;;5.05;0.90;;;;;;;;;;5042304;28;20052;-62
2021/10/05 07:55:23;;;;;;;6.65;1.20;;;;;;;;;;5038890;28;20061;-62
2021/10/05 07:57:48;;;;;;;4.82;1.20;;;;;;;;;;5045086;28;20133;-62
2021/10/05 08:00:14;;;;;;;7.40;1.92;;;;;;;;;;5043550;28;20037;-62
2021/10/05 08:02:40;;;;;;;8.35;1.17;;;;;;;;;;5040622;28;20025;-63
2021/10/05 08:05:06;;;;;;;4.10;0.90;;;;;;;;;;5042187;28;20264;-62
2021/10/05 08:07:32;;;;;;;3.80;0.70;;;;;;;;;;5037098;28;20021;-63
2021/10/05 08:09:58;;;;;;;8.82;0.98;;;;;;;;;;5038787;28;20444;-63
2021/10/05 08:12:24;;;;;;;9.05;1.33;;;;;;;;;;5041769;28;20025;-62
2021/10/05 08:14:51;;;;;;;11.02;1.38;;;;;;;;;;5044669;28;20025;-62
2021/10/05 08:17:18;;;;;;;5.50;1.20;;;;;;;;;;5042610;28;20029;-63
2021/10/05 08:19:44;;;;;;;8.35;1.23;;;;;;;;;;5039457;28;20034;-62
2021/10/05 08:22:10;;;;;;;1.63;0.70;;;;;;;;;;5043044;28;20492;-62
2021/10/05 08:24:36;;;;;;;4.57;0.60;;;;;;;;;;5041840;28;20043;-63
2021/10/05 08:27:05;;;;;;;7.28;0.57;;;;;;;;;;5046127;28;20028;-62
2021/10/05 08:29:37;;;;;;;7.55;0.95;;;;;;;;;;5040772;28;20037;-63
2021/10/05 08:32:04;;;;;;;4.90;0.63;;;;;;;;;;5041524;28;20124;-62
2021/10/05 08:34:29;;;;;;;5.05;0.80;;;;;;;;;;5037980;28;20647;-62
2021/10/05 08:36:55;;;;;;;3.22;0.57;;;;;;;;;;5037461;28;20041;-60
2021/10/05 08:39:20;;;;;;;3.78;0.80;;;;;;;;;;5038372;28;20286;-61
2021/10/05 08:41:47;;;;;;;3.92;0.52;;;;;;;;;;5032986;28;20500;-60
2021/10/05 08:44:13;;;;;;;1.70;0.57;;;;;;;;;;5041487;28;20030;-58
2021/10/05 08:46:40;;;;;;;4.00;0.73;;;;;;;;;;5044045;28;20103;-58
2021/10/05 08:49:06;;;;;;;5.07;0.60;;;;;;;;;;5041249;28;20021;-59
2021/10/05 08:51:33;;;;;;;2.95;0.77;;;;;;;;;;5039320;28;20371;-59
2021/10/05 08:53:58;;;;;;;4.93;0.60;;;;;;;;;;5041499;28;20523;-58
2021/10/05 08:56:24;;;;;;;3.10;0.50;;;;;;;;;;5033573;28;20045;-59
2021/10/05 08:58:50;;;;;;;3.67;0.50;;;;;;;;;;5034593;28;20028;-61
2021/10/05 09:01:17;;;;;;;3.78;0.60;;;;;;;;;;5035739;28;20048;-60
2021/10/05 09:03:54;;;;;;;8.38;2.13;;;;;;;;;;5034995;28;20535;-59
2021/10/05 09:06:21;;;;;;;2.22;0.38;;;;;;;;;;5042002;28;20492;-60
2021/10/05 09:08:47;;;;;;;4.70;0.38;;;;;;;;;;5038054;28;20402;-59
2021/10/05 09:11:18;;;;;;;2.95;0.40;;;;;;;;;;5047151;28;20041;-60
2021/10/05 09:13:51;;;;;;;5.97;0.40;;;;;;;;;;5042083;28;20021;-59
2021/10/05 09:16:25;;;;;;;3.97;0.95;;;;;;;;;;5038450;28;20021;-59
2021/10/05 09:18:54;;;;;;;4.40;0.55;;;;;;;;;;5037620;28;20025;-59
2021/10/05 09:21:20;;;;;;;6.03;0.50;;;;;;;;;;5041193;28;20025;-59
2021/10/05 09:23:53;;;;;;;1.63;0.17;;;;;;;;;;5044637;28;20273;-58
2021/10/05 09:26:19;;;;;;;2.75;0.40;;;;;;;;;;5039896;28;20463;-61
2021/10/05 09:28:45;;;;;;;4.38;0.55;;;;;;;;;;5044412;28;20053;-59
2021/10/05 09:31:10;;;;;;;0.40;0.35;;;;;;;;;;5039657;28;20052;-62
2021/10/05 09:33:36;;;;;;;5.05;0.50;;;;;;;;;;5039900;28;20032;-59
2021/10/05 09:36:03;;;;;;;6.13;0.50;;;;;;;;;;5034719;28;20451;-58
2021/10/05 09:38:30;;;;;;;1.40;0.35;;;;;;;;;;5044693;28;20033;-58
2021/10/05 09:41:00;;;;;;;3.17;0.38;;;;;;;;;;5030198;28;20099;-60
2021/10/05 09:43:26;;;;;;;1.95;0.20;;;;;;;;;;5043899;28;20032;-62
2021/10/05 09:45:52;;;;;;;0.65;0.20;;;;;;;;;;5035925;28;20041;-65
2021/10/05 09:48:18;;;;;;;2.17;0.20;;;;;;;;;;5045170;28;20037;-61
2021/10/05 09:50:44;;;;;;;1.23;0.30;;;;;;;;;;5037179;28;20391;-60
2021/10/05 09:53:16;;;;;;;1.67;0.22;;;;;;;;;;5038695;28;20073;-61
2021/10/05 09:55:46;;;;;;;3.30;0.60;;;;;;;;;;5043497;28;20488;-61
2021/10/05 09:58:12;;;;;;;2.38;0.35;;;;;;;;;;5038428;28;20411;-62
2021/10/05 10:00:44;;;;;;;3.83;0.68;;;;;;;;;;5035040;28;20044;-60
2021/10/05 10:03:10;;;;;;;2.78;0.20;;;;;;;;;;5031439;28;20025;-62
2021/10/05 10:05:38;;;;;;;3.40;0.30;;;;;;;;;;5033452;28;20045;-61
2021/10/05 10:08:04;;;;;;;4.18;0.25;;;;;;;;;;5040152;28;20036;-61
2021/10/05 10:10:34;;;;;;;6.53;0.60;;;;;;;;;;5034482;28;20071;-61
2021/10/05 10:13:08;;;;;;;1.50;0.45;;;;;;;;;;5037958;28;20021;-62
2021/10/05 10:15:36;;;;;;;3.13;1.05;;;;;;;;;;5041337;28;20072;-61
2021/10/05 10:18:15;;;;;;;2.50;0.22;;;;;;;;;;5033219;28;20037;-64
2021/10/05 10:20:53;;;;;;;2.05;0.30;;;;;;;;;;5037715;28;20033;-60
2021/10/05 10:23:27;;;;;;;4.32;0.40;;;;;;;;;;5037876;28;20035;-59
2021/10/05 10:25:53;;;;;;;3.03;1.10;;;;;;;;;;5039738;28;20454;-59
2021/10/05 10:28:27;;;;;;;0.90;0.30;;;;;;;;;;5034172;28;20033;-61
2021/10/05 10:30:55;;;;;;;4.13;0.32;;;;;;;;;;5032581;28;20116;-61
2021/10/05 10:33:22;;;;;;;2.80;0.30;;;;;;;;;;5041495;28;20016;-60
2021/10/05 10:35:53;;;;;;;5.13;0.47;;;;;;;;;;5041271;28;20033;-61
2021/10/05 10:38:27;;;;;;;4.43;0.30;;;;;;;;;;5039126;28;20048;-61
2021/10/05 10:40:53;;;;;;;3.15;0.20;;;;;;;;;;5036207;28;20106;-61
2021/10/05 10:43:21;;;;;;;2.10;0.30;;;;;;;;;;5036284;28;20633;-61
2021/10/05 10:45:58;;;;;;;4.50;0.47;;;;;;;;;;5029802;28;20033;-61
2021/10/05 10:48:36;;;;;;;5.35;0.40;;;;;;;;;;5035249;28;20032;-60
2021/10/05 10:51:26;;;;;;;2.45;0.25;;;;;;;;;;5034994;28;20029;-60
2021/10/05 10:53:54;;;;;;;2.05;0.40;;;;;;;;;;5041890;28;20049;-61
2021/10/05 10:56:36;;;;;;;5.25;0.52;;;;;;;;;;5040537;28;20026;-61
2021/10/05 10:59:07;;;;;;;1.35;0.25;;;;;;;;;;5040961;28;20033;-62
2021/10/05 11:01:46;;;;;;;2.08;0.45;;;;;;;;;;5035708;28;20033;-60
2021/10/05 11:04:15;;;;;;;0.75;0.30;;;;;;;;;;5034958;28;20029;-61
2021/10/05 11:06:48;;;;;;;3.00;0.45;;;;;;;;;;5047054;28;20483;-61
2021/10/05 11:09:15;;;;;;;2.15;0.50;;;;;;;;;;5038913;28;20029;-61
2021/10/05 11:11:43;;;;;;;5.38;0.80;;;;;;;;;;5047403;28;20028;-61
2021/10/05 11:14:28;;;;;;;6.15;0.47;;;;;;;;;;5036840;28;20485;-62
2021/10/05 11:17:07;;;;;;;1.38;0.15;;;;;;;;;;5046643;28;20025;-61
2021/10/05 11:19:35;;;;;;;5.22;0.98;;;;;;;;;;5048126;28;20071;-62
2021/10/05 11:22:03;;;;;;;2.15;0.47;;;;;;;;;;5046833;28;20329;-63
2021/10/05 11:24:46;;;;;;;4.57;0.35;;;;;;;;;;5043190;28;20488;-61
2021/10/05 11:27:17;;;;;;;5.72;0.20;;;;;;;;;;5048240;28;20523;-60
2021/10/05 11:29:43;;;;;;;3.72;0.20;;;;;;;;;;5044467;28;20401;-62
2021/10/05 11:32:12;;;;;;;2.67;0.20;;;;;;;;;;5040646;28;20033;-63
2021/10/05 11:34:40;;;;;;;3.70;0.30;;;;;;;;;;5045437;28;20044;-61
2021/10/05 11:37:11;;;;;;;3.05;0.30;;;;;;;;;;5042469;28;20082;-62
2021/10/05 11:39:39;;;;;;;0.95;0.10;;;;;;;;;;5045036;28;20063;-62
2021/10/05 11:42:10;;;;;;;0.85;0.35;;;;;;;;;;5037312;28;20083;-62
2021/10/05 11:44:44;;;;;;;2.85;0.20;;;;;;;;;;5034892;28;20038;-61
2021/10/05 11:47:15;;;;;;;4.00;0.20;;;;;;;;;;5040483;28;20048;-61
2021/10/05 11:50:05;;;;;;;2.72;0.30;;;;;;;;;;5043778;28;20029;-61
2021/10/05 11:52:35;;;;;;;4.65;0.47;;;;;;;;;;5033560;28;20033;-61
2021/10/05 11:55:01;;;;;;;4.53;0.35;;;;;;;;;;5039611;28;20025;-61
2021/10/05 11:57:32;;;;;;;3.53;0.20;;;;;;;;;;5039208;28;20043;-64
2021/10/05 12:00:03;;;;;;;2.83;0.40;;;;;;;;;;5037370;28;20857;-63
2021/10/05 12:02:28;;;;;;;5.47;0.20;;;;;;;;;;5042613;28;20048;-60
2021/10/05 12:04:56;;;;;;;2.17;0.20;;;;;;;;;;5048182;28;20547;-60
2021/10/05 12:07:24;;;;;;;3.20;0.35;;;;;;;;;;5038453;28;20029;-61
2021/10/05 12:10:02;;;;;;;1.85;0.10;;;;;;;;;;5047990;28;20037;-61
2021/10/05 12:12:32;;;;;;;1.63;0.30;;;;;;;;;;5048881;28;20021;-61
2021/10/05 12:15:02;;;;;;;5.97;0.65;;;;;;;;;;5047035;28;20390;-61
2021/10/05 12:17:30;;;;;;;7.22;0.30;;;;;;;;;;5054862;28;20033;-61
2021/10/05 12:20:03;;;;;;;5.47;0.40;;;;;;;;;;5040504;28;20112;-61
2021/10/05 12:22:31;;;;;;;2.70;0.40;;;;;;;;;;5042326;28;20031;-61
2021/10/05 12:25:03;;;;;;;3.92;0.52;;;;;;;;;;5044193;28;20037;-61
2021/10/05 12:27:28;;;;;;;2.95;0.45;;;;;;;;;;5039859;28;20499;-61
2021/10/05 12:29:54;;;;;;;3.47;0.60;;;;;;;;;;5039501;28;20075;-61
2021/10/05 12:32:30;;;;;;;3.50;0.60;;;;;;;;;;5040992;28;20091;-62
2021/10/05 12:34:59;;;;;;;1.48;0.50;;;;;;;;;;5042088;28;20021;-62
2021/10/05 12:37:29;;;;;;;5.28;0.50;;;;;;;;;;5032057;28;20097;-62
2021/10/05 12:40:01;;;;;;;3.03;0.52;;;;;;;;;;5040407;28;20434;-61
2021/10/05 12:42:40;;;;;;;;;;;;;;;;;;5036941;28;20116;-62
2021/10/05 12:45:19;;;;;;;3.03;0.30;;;;;;;;;;5039190;28;19916;-60
2021/10/05 12:48:01;;;;;;;1.90;0.30;;;;;;;;;;5044124;28;20045;-60
2021/10/05 12:50:40;;;;;;;5.30;0.30;;;;;;;;;;5034414;28;20028;-60
2021/10/05 12:53:06;;;;;;;1.83;0.20;;;;;;;;;;5035357;28;20419;-60
2021/10/05 12:55:33;;;;;;;2.00;0.25;;;;;;;;;;5041300;28;20037;-60
2021/10/05 12:58:00;;;;;;;0.52;0.20;;;;;;;;;;5035007;28;20086;-59
2021/10/05 13:00:28;;;;;;;2.42;0.40;;;;;;;;;;5042810;28;20029;-61
2021/10/05 13:02:53;;;;;;;2.00;0.40;;;;;;;;;;5038389;28;20044;-60
2021/10/05 13:05:20;;;;;;;0.50;0.20;;;;;;;;;;5044132;28;20116;-60
2021/10/05 13:07:47;;;;;;;2.80;0.30;;;;;;;;;;5044893;28;20060;-61
2021/10/05 13:10:13;;;;;;;2.33;0.45;;;;;;;;;;5036411;28;20500;-61
2021/10/05 13:12:39;;;;;;;3.88;0.35;;;;;;;;;;5041952;28;20021;-62
2021/10/05 13:15:06;;;;;;;3.47;0.50;;;;;;;;;;5035399;28;20026;-60
2021/10/05 13:17:32;;;;;;;4.43;0.40;;;;;;;;;;5045061;28;20072;-60
2021/10/05 13:19:57;;;;;;;3.83;0.47;;;;;;;;;;5047936;28;20071;-60
2021/10/05 13:22:23;;;;;;;0.45;0.22;;;;;;;;;;5039147;28;20468;-60
2021/10/05 13:24:49;;;;;;;1.45;0.50;;;;;;;;;;5043490;28;20026;-60
2021/10/05 13:27:14;;;;;;;1.52;0.30;;;;;;;;;;5040331;28;20029;-61
2021/10/05 13:29:40;;;;;;;3.40;0.60;;;;;;;;;;5044878;28;20029;-60
2021/10/05 13:32:06;;;;;;;2.92;0.35;;;;;;;;;;5042412;28;20403;-61
2021/10/05 13:34:31;;;;;;;3.35;0.30;;;;;;;;;;5041540;28;20031;-60
2021/10/05 13:36:58;;;;;;;2.90;0.38;;;;;;;;;;5033245;28;20124;-61
2021/10/05 13:39:24;;;;;;;1.65;0.30;;;;;;;;;;5036446;28;20079;-61
2021/10/05 13:41:50;;;;;;;4.50;0.22;;;;;;;;;;5040606;28;20037;-61
2021/10/05 13:44:17;;;;;;;2.42;0.57;;;;;;;;;;5034072;28;20057;-61
2021/10/05 13:46:44;;;;;;;2.72;0.30;;;;;;;;;;5043349;28;20486;-62
2021/10/05 13:49:10;;;;;;;1.42;0.30;;;;;;;;;;5034091;28;20115;-62
2021/10/05 13:51:35;;;;;;;3.92;0.40;;;;;;;;;;5037601;28;20166;-61
2021/10/05 13:54:01;;;;;;;3.35;0.20;;;;;;;;;;5038100;28;20587;-61
2021/10/05 13:56:28;;;;;;;3.17;0.22;;;;;;;;;;5043699;28;20056;-62
2021/10/05 13:58:54;;;;;;;0.40;0.20;;;;;;;;;;5029765;28;20025;-62
2021/10/05 14:01:20;;;;;;;4.15;0.20;;;;;;;;;;5033721;28;20067;-62
2021/10/05 14:03:45;;;;;;;4.70;0.22;;;;;;;;;;5037268;28;20048;-62
2021/10/05 14:06:12;;;;;;;1.52;0.20;;;;;;;;;;5040053;28;20035;-61
2021/10/05 14:08:38;;;;;;;3.60;0.45;;;;;;;;;;5034220;28;20318;-61
2021/10/05 14:11:04;;;;;;;1.75;0.25;;;;;;;;;;5038965;28;20041;-61
2021/10/05 14:13:29;;;;;;;4.30;0.20;;;;;;;;;;5040620;28;20029;-62
2021/10/05 14:15:55;;;;;;;5.18;0.80;;;;;;;;;;5030532;28;20033;-60
2021/10/05 14:18:21;;;;;;;1.67;0.17;;;;;;;;;;5034764;28;20253;-60
2021/10/05 14:20:50;;;;;;;3.70;1.60;;;;;;;;;;5034777;28;20029;-61
2021/10/05 14:23:16;;;;;;;1.92;0.30;;;;;;;;;;5030945;28;20099;-61
2021/10/05 14:25:41;;;;;;;1.75;0.20;;;;;;;;;;5034472;28;20496;-61
2021/10/05 14:28:07;;;;;;;4.18;0.40;;;;;;;;;;5039266;28;20590;-62
2021/10/05 14:30:32;;;;;;;2.58;0.30;;;;;;;;;;5033561;28;20041;-60
2021/10/05 14:32:58;;;;;;;1.13;0.55;;;;;;;;;;5038972;28;20132;-61
2021/10/05 14:35:23;;;;;;;2.03;0.20;;;;;;;;;;5038961;28;20096;-61
2021/10/05 14:37:49;;;;;;;1.92;0.40;;;;;;;;;;5034530;28;20721;-62
2021/10/05 14:40:14;;;;;;;4.90;0.50;;;;;;;;;;5039106;28;20642;-61
2021/10/05 14:42:41;;;;;;;3.15;0.38;;;;;;;;;;5034235;28;20508;-62
2021/10/05 14:45:07;;;;;;;5.97;0.60;;;;;;;;;;5054938;28;20104;-62